Главная страница
METAR-TAF:

METAR-TAF

Аэропорты :

Dease Lake, Британская Колумбия, Канада

широта: 58-25-20N, долгота: 130-01-53W, высота над уровнем моря: 803 м

Текущие метеонаблюдения

Эта сводка был подготовлена 27 минут назад, в 12:01 UTC
Ветер 2 Узел переменных направлений
Температура 1°C
Влажность 93%
Давление 1012 hPa
Видимость: 14.5 км
Рассеянная облачность на высоте 800 фута

METAR: CYDL 201201Z AUTO VRB02KT 9SM BKN008 01/00 A2989 RMK SLP143

Время: 05:28 (12:28 UTC)

Прогноз

Эта сводка был подготовлена 12 часа и 50 минут назад, в 23:38 UTC
Прогноз действительный с 20-го 00 UTC до 20-го 02 UTC
Ветер 10 Узел от юго-западный с порывами до 22 Узел
Видимость: 10 км
Рассеянная облачность на высоте 5000 фута
временами
С 20-го 00 UTC до 20-го 02 UTC
Видимость: 10 км
небольшой дождь

TAF: CYDL 192338Z 2000/2002 22010G22KT P6SM BKN050 TEMPO 2000/2002 P6SM -RA RMK FCST BASED ON AUTO OBS. NXT FCST WILL BE ISSUED AT 201545Z

Метеонаблюдения и прогнозы для более 4000 аэропортов (сводки METAR и TAF).

Имеющиеся станции представлены на карте желтыми и красными точками.

Чтобы увидеть название станции, наведите на нее мышь.

Затем щелкните, чтобы увидеть метеонаблюдения и метеопрогнозы.

Управление картой: чтобы увеличить масштаб, щелкните зеленые кнопки с черным крестиком; чтобы уменьшить масштаб, щелкните зеленую кнопку с тире; для просмотра соседних карт щелкайте зеленые стрелки.


METAR-TAF: